Time;durP1;ratioP1;P1;durP2;ratioP2;P2;SDS_P1;SDS_P2;PMS_P1;PMS_P2;Temp;Humidity;BMP_temperature;BMP_pressure;BME280_temperature;BME280_humidity;BME280_pressure;Samples;Min_cycle;Max_cycle;Signal;HPM_P1;HPM_P2
2023/09/18 00:00:02;;;;;;;6.60;2.30;;;21.20;1.00;;;;;;6240308;23;20374;-78
2023/09/18 00:02:29;;;;;;;7.87;2.30;;;21.20;99.90;;;;;;6239837;23;20644;-78
2023/09/18 00:04:55;;;;;;;6.80;2.03;;;21.20;1.00;;;;;;6238945;23;20374;-78
2023/09/18 00:07:20;;;;;;;8.27;2.10;;;21.10;99.90;;;;;;6240580;23;20364;-78
2023/09/18 00:09:46;;;;;;;7.40;2.00;;;21.20;1.00;;;;;;6241426;23;20358;-77
2023/09/18 00:12:11;;;;;;;8.03;2.23;;;21.20;1.00;;;;;;6240021;23;20361;-77
2023/09/18 00:14:37;;;;;;;7.30;1.67;;;21.10;99.90;;;;;;6240357;23;20477;-77
2023/09/18 00:17:03;;;;;;;6.07;2.00;;;21.00;1.00;;;;;;6239876;23;20367;-78
2023/09/18 00:19:29;;;;;;;6.83;2.13;;;20.90;1.00;;;;;;6239251;23;20385;-78
2023/09/18 00:21:56;;;;;;;7.32;2.63;;;21.10;99.90;;;;;;6240013;23;20795;-78
2023/09/18 00:24:22;;;;;;;6.30;2.10;;;21.20;1.00;;;;;;6239946;23;20362;-78
2023/09/18 00:26:48;;;;;;;6.33;1.80;;;21.30;1.00;;;;;;6240734;23;20356;-78
2023/09/18 00:29:14;;;;;;;7.70;2.15;;;21.20;99.90;;;;;;6240953;23;20416;-78
2023/09/18 00:31:40;;;;;;;9.23;2.60;;;21.40;99.90;;;;;;6240188;23;20365;-78
2023/09/18 00:34:05;;;;;;;5.88;1.85;;;21.60;1.00;;;;;;6239351;23;20448;-78
2023/09/18 00:36:31;;;;;;;6.80;2.30;;;21.60;1.00;;;;;;6240380;23;20358;-78
2023/09/18 00:38:56;;;;;;;5.93;1.90;;;21.70;1.00;;;;;;6240009;23;20370;-78
2023/09/18 00:41:22;;;;;;;6.85;2.30;;;21.60;1.00;;;;;;6240235;23;20455;-78
2023/09/18 00:43:47;;;;;;;6.60;2.30;;;21.40;99.90;;;;;;6240719;23;20358;-78
2023/09/18 00:46:13;;;;;;;7.40;2.50;;;21.30;1.00;;;;;;6240003;23;20686;-78
2023/09/18 00:48:40;;;;;;;6.88;2.53;;;21.20;99.90;;;;;;6238499;23;21348;-78
2023/09/18 00:51:07;;;;;;;7.20;2.30;;;21.30;1.00;;;;;;6240005;23;20370;-78
2023/09/18 00:53:32;;;;;;;6.80;2.20;;;21.40;99.90;;;;;;6211800;23;20712;-77
2023/09/18 00:56:00;;;;;;;7.85;2.30;;;21.40;99.90;;;;;;6240134;23;20378;-77
2023/09/18 00:58:26;;;;;;;8.40;2.50;;;21.50;99.90;;;;;;6240555;23;20386;-77
2023/09/18 01:00:52;;;;;;;8.07;2.40;;;21.50;99.90;;;;;;6239908;23;20366;-78
2023/09/18 01:03:20;;;;;;;7.13;2.80;;;21.60;51.50;;;;;;6239881;23;20889;-77
2023/09/18 01:05:46;;;;;;;8.52;2.60;;;21.70;1.00;;;;;;6240555;23;20826;-77
2023/09/18 01:08:12;;;;;;;8.10;2.30;;;21.70;1.00;;;;;;6239620;23;20498;-77
2023/09/18 01:10:49;;;;;;;8.00;2.50;;;21.60;3.20;;;;;;6239804;23;20806;-77
2023/09/18 01:13:20;;;;;;;6.23;2.00;;;21.70;76.80;;;;;;6240707;23;20385;-78
2023/09/18 01:15:57;;;;;;;7.20;2.30;;;21.60;99.90;;;;;;6240584;23;20846;-78
2023/09/18 01:18:23;;;;;;;6.18;2.13;;;21.60;42.70;;;;;;6239355;23;20411;-77
2023/09/18 01:20:48;;;;;;;8.40;2.10;;;21.70;99.90;;;;;;6239457;23;20358;-77
2023/09/18 01:23:14;;;;;;;6.57;2.17;;;21.70;99.90;;;;;;6240448;23;20769;-77
2023/09/18 01:25:39;;;;;;;6.10;2.00;;;21.70;99.90;;;;;;6239537;23;20741;-77
2023/09/18 01:28:05;;;;;;;7.20;2.00;;;21.70;99.90;;;;;;6239616;23;20365;-77
2023/09/18 01:30:30;;;;;;;6.97;2.15;;;21.70;62.30;;;;;;6239782;23;20361;-77
2023/09/18 01:32:58;;;;;;;8.38;2.70;;;21.70;99.90;;;;;;6239133;23;20523;-77
2023/09/18 01:35:29;;;;;;;7.00;2.20;;;21.70;82.90;;;;;;6239587;23;20821;-77
2023/09/18 01:37:56;;;;;;;8.30;2.20;;;21.80;1.00;;;;;;6239699;23;20821;-77
2023/09/18 01:40:23;;;;;;;6.30;2.33;;;21.90;1.00;;;;;;6239624;23;20445;-77
2023/09/18 01:42:48;;;;;;;6.20;1.80;;;22.00;99.90;;;;;;6239795;23;20842;-77
2023/09/18 01:45:14;;;;;;;7.50;2.27;;;22.10;99.90;;;;;;6213445;23;20366;-77
2023/09/18 01:47:40;;;;;;;7.77;2.27;;;22.20;99.90;;;;;;6239358;23;20471;-78
2023/09/18 01:50:05;;;;;;;7.37;2.43;;;22.40;71.00;;;;;;6239781;23;20423;-78
2023/09/18 01:52:31;;;;;;;6.10;1.90;;;22.40;1.00;;;;;;6239739;23;20385;-78
2023/09/18 01:54:57;;;;;;;7.65;2.15;;;22.30;99.90;;;;;;6239331;23;20846;-78
2023/09/18 01:57:22;;;;;;;5.95;2.00;;;22.20;99.90;;;;;;6239344;23;20440;-78
2023/09/18 01:59:48;;;;;;;7.05;2.03;;;22.10;1.00;;;;;;6239612;23;20386;-78
2023/09/18 02:02:13;;;;;;;6.80;1.73;;;22.30;1.00;;;;;;6240822;23;20461;-78
2023/09/18 02:04:39;;;;;;;7.70;1.42;;;22.40;1.00;;;;;;6240672;23;20463;-77
2023/09/18 02:07:05;;;;;;;5.70;1.50;;;22.60;99.90;;;;;;6240894;23;20841;-77
2023/09/18 02:09:31;;;;;;;7.05;1.65;;;22.70;99.90;;;;;;6240362;23;20358;-77
2023/09/18 02:11:57;;;;;;;7.60;1.50;;;22.80;99.90;;;;;;6240749;23;20369;-77
2023/09/18 02:14:22;;;;;;;5.70;1.60;;;22.90;99.90;;;;;;6240615;23;20393;-77
2023/09/18 02:16:49;;;;;;;6.50;1.80;;;23.00;99.90;;;;;;6240847;23;20357;-77
2023/09/18 02:19:16;;;;;;;7.70;1.63;;;23.00;99.90;;;;;;6241357;23;20350;-77
2023/09/18 02:21:41;;;;;;;15.73;1.85;;;22.90;1.00;;;;;;6240799;23;20879;-77
2023/09/18 02:24:07;;;;;;;6.45;1.70;;;22.80;41.90;;;;;;6240898;23;20366;-77
2023/09/18 02:26:33;;;;;;;8.38;2.10;;;22.80;1.00;;;;;;6240631;23;20443;-77
2023/09/18 02:29:03;;;;;;;9.43;1.60;;;22.70;1.00;;;;;;6240986;23;20377;-77
2023/09/18 02:31:28;;;;;;;8.82;1.75;;;22.50;1.00;;;;;;6239737;23;20373;-77
2023/09/18 02:33:54;;;;;;;6.43;1.60;;;22.30;99.90;;;;;;6240452;23;20385;-77
2023/09/18 02:36:19;;;;;;;8.77;1.90;;;22.00;78.00;;;;;;6240586;23;20365;-77
2023/09/18 02:38:45;;;;;;;7.37;1.57;;;21.70;99.90;;;;;;6241246;23;20429;-78
2023/09/18 02:41:10;;;;;;;6.03;1.70;;;21.60;99.90;;;;;;6240845;23;20963;-78
2023/09/18 02:43:39;;;;;;;5.90;1.60;;;21.70;99.90;;;;;;6243431;23;20394;-78
2023/09/18 02:46:05;;;;;;;6.60;1.70;;;21.70;99.90;;;;;;6240846;23;20362;-78
2023/09/18 02:48:31;;;;;;;6.82;2.22;;;21.70;99.90;;;;;;6240774;23;20872;-78
2023/09/18 02:51:01;;;;;;;8.38;2.10;;;21.60;99.90;;;;;;6241072;23;20366;-78
2023/09/18 02:53:27;;;;;;;7.55;1.40;;;21.40;99.90;;;;;;6240423;23;20382;-78
2023/09/18 02:55:56;;;;;;;9.52;1.83;;;21.30;99.90;;;;;;6240830;23;20367;-78
2023/09/18 02:58:22;;;;;;;7.30;2.10;;;21.40;83.30;;;;;;6240002;23;20394;-78
2023/09/18 03:00:50;;;;;;;8.63;1.50;;;21.50;99.90;;;;;;6241250;23;20350;-78
2023/09/18 03:03:16;;;;;;;7.88;1.92;;;21.60;99.90;;;;;;6241146;23;20648;-78
2023/09/18 03:05:43;;;;;;;6.53;1.60;;;21.70;99.90;;;;;;6242110;23;20373;-78
2023/09/18 03:08:09;;;;;;;11.67;2.27;;;21.60;99.90;;;;;;6243928;23;20354;-78
2023/09/18 03:10:37;;;;;;;7.53;1.70;;;21.50;99.90;;;;;;6243327;23;20819;-78
2023/09/18 03:13:03;;;;;;;8.70;2.13;;;21.40;99.90;;;;;;6241169;23;20957;-78
2023/09/18 03:15:29;;;;;;;7.93;1.60;;;21.20;1.00;;;;;;6239993;23;20416;-78
2023/09/18 03:17:55;;;;;;;7.28;1.67;;;21.00;1.00;;;;;;6240286;23;20366;-78
2023/09/18 03:20:24;;;;;;;8.77;2.00;;;20.90;1.00;;;;;;6240778;23;20365;-78
2023/09/18 03:22:55;;;;;;;9.95;2.35;;;20.70;1.00;;;;;;6239948;23;20652;-78
2023/09/18 03:25:21;;;;;;;7.40;2.10;;;20.70;1.00;;;;;;6213550;23;20776;-78
2023/09/18 03:27:47;;;;;;;8.03;2.00;;;20.70;1.00;;;;;;6240357;23;20499;-78
2023/09/18 03:30:15;;;;;;;8.10;2.60;;;20.70;1.00;;;;;;6239990;23;20435;-78
2023/09/18 03:32:41;;;;;;;6.75;1.88;;;20.70;1.00;;;;;;6243137;23;20479;-78
2023/09/18 03:35:09;;;;;;;8.05;2.60;;;20.80;1.00;;;;;;6244107;23;20362;-78
2023/09/18 03:37:35;;;;;;;8.32;2.13;;;20.80;1.00;;;;;;6243993;23;20350;-78
2023/09/18 03:40:02;;;;;;;6.27;1.83;;;20.70;1.00;;;;;;6242546;23;20652;-78
2023/09/18 03:42:28;;;;;;;9.77;2.50;;;20.50;1.00;;;;;;6242025;23;20362;-78
2023/09/18 03:44:53;;;;;;;10.57;2.05;;;20.50;1.00;;;;;;6241326;23;20824;-78
2023/09/18 03:47:19;;;;;;;8.05;1.45;;;20.50;1.00;;;;;;6240649;23;20369;-77
2023/09/18 03:49:44;;;;;;;5.90;1.65;;;20.60;1.00;;;;;;6241473;23;20384;-78
2023/09/18 03:52:09;;;;;;;13.07;2.20;;;20.60;1.00;;;;;;6240026;23;20416;-78
2023/09/18 03:54:35;;;;;;;7.67;2.00;;;20.60;1.00;;;;;;6240551;23;20420;-78
2023/09/18 03:57:00;;;;;;;5.40;1.50;;;20.70;1.00;;;;;;6239815;23;20362;-78
2023/09/18 03:59:26;;;;;;;8.80;2.17;;;20.70;99.90;;;;;;6240418;23;20357;-78
2023/09/18 04:01:51;;;;;;;7.20;1.50;;;20.80;99.90;;;;;;6239984;23;20366;-78
2023/09/18 04:04:17;;;;;;;8.00;1.90;;;20.90;99.90;;;;;;6240879;23;20354;-78
2023/09/18 04:06:44;;;;;;;8.27;1.90;;;21.00;99.90;;;;;;6239697;23;20362;-76
2023/09/18 04:09:10;;;;;;;7.57;1.80;;;21.00;1.00;;;;;;6239131;23;20394;-76
2023/09/18 04:11:35;;;;;;;11.30;2.20;;;20.90;1.00;;;;;;6238686;23;20363;-76
2023/09/18 04:14:03;;;;;;;7.10;1.67;;;20.70;1.00;;;;;;6239414;23;20389;-76
2023/09/18 04:16:30;;;;;;;5.03;1.35;;;20.50;1.00;;;;;;6239289;23;20350;-75
2023/09/18 04:18:56;;;;;;;7.80;2.00;;;20.50;1.00;;;;;;6239997;23;20369;-77
2023/09/18 04:21:22;;;;;;;8.80;2.47;;;20.50;1.00;;;;;;6239743;23;20362;-77
2023/09/18 04:23:47;;;;;;;7.73;2.07;;;20.30;1.00;;;;;;6240324;23;20357;-77
2023/09/18 04:26:15;;;;;;;10.33;1.63;;;20.30;1.00;;;;;;6239446;23;20393;-77
2023/09/18 04:28:41;;;;;;;6.85;1.52;;;20.40;1.00;;;;;;6239575;23;20444;-76
2023/09/18 04:31:06;;;;;;;7.87;1.87;;;20.50;1.00;;;;;;6239831;23;20842;-77
2023/09/18 04:33:32;;;;;;;8.03;1.70;;;20.50;1.00;;;;;;6240253;23;20422;-76
2023/09/18 04:35:58;;;;;;;5.37;1.50;;;20.40;1.00;;;;;;6238711;23;20436;-77
2023/09/18 04:38:23;;;;;;;10.20;2.70;;;20.50;1.00;;;;;;6239382;23;20453;-77
2023/09/18 04:40:49;;;;;;;7.07;2.03;;;20.70;1.00;;;;;;6238781;23;20365;-78
2023/09/18 04:43:14;;;;;;;6.67;1.67;;;20.70;1.00;;;;;;6239638;23;20366;-78
2023/09/18 04:45:40;;;;;;;10.00;1.87;;;20.60;1.00;;;;;;6238186;23;20357;-77
2023/09/18 04:48:05;;;;;;;8.65;2.45;;;20.50;1.00;;;;;;6239536;23;20350;-76
2023/09/18 04:50:33;;;;;;;7.90;2.10;;;20.50;1.00;;;;;;6238573;23;20369;-74
2023/09/18 04:52:59;;;;;;;7.43;1.52;;;20.40;1.00;;;;;;6238636;23;20451;-74
2023/09/18 04:55:25;;;;;;;5.80;2.20;;;20.40;1.00;;;;;;6238039;23;20369;-74
2023/09/18 04:57:50;;;;;;;10.50;2.28;;;20.40;1.00;;;;;;6239225;23;20353;-74
2023/09/18 05:00:16;;;;;;;7.50;1.85;;;20.30;1.00;;;;;;6240076;23;20435;-75
2023/09/18 05:02:42;;;;;;;14.23;1.77;;;20.10;9.20;;;;;;6239334;23;20362;-77
2023/09/18 05:05:11;;;;;;;10.75;2.95;;;20.10;7.70;;;;;;6239335;23;20667;-77
2023/09/18 05:07:37;;;;;;;8.48;2.00;;;20.10;5.20;;;;;;6239477;23;20446;-77
2023/09/18 05:10:04;;;;;;;9.93;2.03;;;20.20;1.00;;;;;;6239563;23;20393;-77
2023/09/18 05:12:30;;;;;;;6.32;2.05;;;20.00;1.00;;;;;;6240206;23;20390;-76
2023/09/18 05:14:58;;;;;;;7.68;2.00;;;20.00;1.00;;;;;;6240194;23;20702;-76
2023/09/18 05:17:43;;;;;;;10.88;2.30;;;20.10;1.00;;;;;;6239956;23;20454;-76
2023/09/18 05:20:11;;;;;;;8.38;1.92;;;20.20;1.00;;;;;;6239412;23;20913;-76
2023/09/18 05:22:37;;;;;;;8.77;2.45;;;20.20;1.00;;;;;;6238700;23;20806;-77
2023/09/18 05:25:04;;;;;;;7.30;1.90;;;20.30;1.00;;;;;;6239382;23;20423;-76
2023/09/18 05:27:29;;;;;;;5.72;2.08;;;20.40;1.00;;;;;;6239171;23;20798;-76
2023/09/18 05:29:55;;;;;;;6.00;1.67;;;20.30;1.00;;;;;;6239432;23;20440;-75
2023/09/18 05:32:20;;;;;;;8.60;2.30;;;20.40;1.00;;;;;;6236914;23;20374;-76
2023/09/18 05:34:46;;;;;;;6.23;1.90;;;20.50;1.00;;;;;;6240021;23;20671;-76
2023/09/18 05:37:12;;;;;;;8.93;1.80;;;20.60;1.00;;;;;;6241880;23;20393;-76
2023/09/18 05:39:37;;;;;;;8.83;2.03;;;20.60;1.00;;;;;;6242199;23;20672;-76
2023/09/18 05:42:03;;;;;;;7.43;2.07;;;20.60;1.00;;;;;;6242186;23;20841;-76
2023/09/18 05:44:28;;;;;;;6.63;1.73;;;20.50;1.00;;;;;;6242713;23;20381;-76
2023/09/18 05:46:54;;;;;;;8.82;2.25;;;20.60;1.00;;;;;;6242910;23;20854;-76
2023/09/18 05:49:19;;;;;;;7.47;2.10;;;20.50;1.00;;;;;;6243144;23;20361;-76
2023/09/18 05:51:47;;;;;;;16.30;2.25;;;20.40;1.00;;;;;;6243297;23;20362;-76
2023/09/18 05:54:12;;;;;;;7.80;2.30;;;20.50;1.00;;;;;;6241712;23;20841;-76
2023/09/18 05:56:38;;;;;;;8.13;2.00;;;20.70;1.00;;;;;;6243614;23;20379;-76
2023/09/18 05:59:03;;;;;;;7.63;1.92;;;20.70;1.00;;;;;;6242702;23;20420;-76
2023/09/18 06:01:29;;;;;;;7.90;1.80;;;20.60;1.00;;;;;;6243563;23;20849;-76
2023/09/18 06:03:55;;;;;;;6.20;1.90;;;20.80;1.00;;;;;;6241880;23;20454;-76
2023/09/18 06:06:20;;;;;;;6.00;1.60;;;20.90;1.00;;;;;;6242038;23;20809;-77
2023/09/18 06:08:46;;;;;;;9.50;1.90;;;20.80;1.00;;;;;;6240878;23;20372;-77
2023/09/18 06:11:11;;;;;;;12.27;2.00;;;20.90;1.00;;;;;;6242777;23;20433;-76
2023/09/18 06:13:37;;;;;;;7.00;1.90;;;20.90;1.00;;;;;;6242510;23;20731;-76
2023/09/18 06:16:07;;;;;;;7.38;1.92;;;21.00;1.00;;;;;;6242549;23;20399;-76
2023/09/18 06:18:33;;;;;;;7.50;1.20;;;21.00;1.00;;;;;;6242621;23;20361;-76
2023/09/18 06:20:58;;;;;;;5.97;1.75;;;21.10;1.00;;;;;;6242808;23;20864;-77
2023/09/18 06:23:24;;;;;;;5.70;1.17;;;21.10;1.00;;;;;;6209756;23;20375;-77
2023/09/18 06:25:55;;;;;;;7.77;1.40;;;21.00;1.00;;;;;;6233627;23;20365;-76
2023/09/18 06:28:21;;;;;;;8.03;1.73;;;21.00;1.00;;;;;;6242238;23;20349;-76
2023/09/18 06:30:47;;;;;;;7.00;1.40;;;21.10;99.90;;;;;;6242986;23;20361;-76
2023/09/18 06:33:13;;;;;;;9.50;1.47;;;21.10;1.00;;;;;;6242116;23;20397;-76
2023/09/18 06:35:39;;;;;;;6.70;1.90;;;21.00;99.90;;;;;;6242256;23;20366;-76
2023/09/18 06:38:06;;;;;;;7.13;1.30;;;21.00;99.90;;;;;;6242024;23;20404;-76
2023/09/18 06:40:32;;;;;;;6.43;1.30;;;21.10;99.90;;;;;;6242510;23;20362;-77
2023/09/18 06:43:00;;;;;;;6.45;1.45;;;21.10;99.90;;;;;;6242065;23;20374;-76
2023/09/18 06:45:27;;;;;;;4.80;1.30;;;21.10;99.90;;;;;;6242272;23;20492;-76
2023/09/18 06:47:53;;;;;;;8.00;1.30;;;21.10;99.90;;;;;;6240400;23;20366;-76
2023/09/18 06:50:19;;;;;;;6.87;1.40;;;21.30;99.90;;;;;;6239887;23;20370;-76
2023/09/18 06:52:44;;;;;;;5.65;1.30;;;21.40;1.00;;;;;;6240547;23;20386;-76
2023/09/18 06:55:10;;;;;;;5.85;1.45;;;21.50;1.00;;;;;;6240665;23;20841;-76
2023/09/18 06:57:35;;;;;;;6.38;1.27;;;21.50;15.60;;;;;;6240586;23;20419;-76
2023/09/18 07:00:01;;;;;;;7.97;1.57;;;21.50;91.80;;;;;;6240296;23;20374;-76
2023/09/18 07:02:27;;;;;;;6.23;1.20;;;21.40;99.90;;;;;;6240684;23;20362;-76
2023/09/18 07:04:52;;;;;;;5.80;1.20;;;21.60;99.90;;;;;;6239683;23;20354;-76
2023/09/18 07:07:24;;;;;;;5.85;1.30;;;21.70;1.00;;;;;;6240694;23;20362;-76
2023/09/18 07:09:50;;;;;;;7.10;1.60;;;21.80;1.00;;;;;;6240375;23;20354;-76
2023/09/18 07:12:18;;;;;;;8.97;1.60;;;21.70;1.00;;;;;;6241096;23;20362;-76
2023/09/18 07:14:44;;;;;;;4.80;1.00;;;21.60;1.00;;;;;;6240929;23;20362;-76
2023/09/18 07:17:09;;;;;;;4.95;0.93;;;21.60;1.00;;;;;;6240586;23;20414;-76
2023/09/18 07:19:35;;;;;;;6.45;0.98;;;21.60;1.00;;;;;;6239621;23;20366;-76
2023/09/18 07:22:01;;;;;;;6.45;1.33;;;21.60;1.00;;;;;;6240103;23;20441;-76
2023/09/18 07:24:26;;;;;;;5.27;0.97;;;21.80;1.00;;;;;;6240612;23;20448;-76
2023/09/18 07:26:52;;;;;;;8.30;1.10;;;21.90;99.90;;;;;;6240099;23;20663;-76
2023/09/18 07:29:17;;;;;;;7.90;1.00;;;22.00;99.90;;;;;;6240947;23;20354;-76
2023/09/18 07:31:44;;;;;;;5.67;1.20;;;21.90;99.90;;;;;;6240561;23;20819;-76
2023/09/18 07:34:10;;;;;;;8.10;1.20;;;21.70;99.90;;;;;;6240008;23;20777;-76
2023/09/18 07:36:36;;;;;;;8.10;1.30;;;21.70;1.00;;;;;;6240223;23;20369;-76
2023/09/18 07:39:02;;;;;;;4.70;0.90;;;21.70;1.00;;;;;;6240498;23;20651;-76
2023/09/18 07:41:29;;;;;;;5.53;1.27;;;21.70;1.00;;;;;;6240138;23;20376;-76
2023/09/18 07:43:57;;;;;;;8.27;1.23;;;21.90;1.00;;;;;;6239910;23;20445;-76
2023/09/18 07:46:22;;;;;;;5.27;0.90;;;21.90;1.00;;;;;;6240143;23;20907;-76
2023/09/18 07:48:48;;;;;;;6.00;0.70;;;22.00;99.90;;;;;;6240180;23;20396;-76
2023/09/18 07:51:15;;;;;;;7.83;1.30;;;22.10;1.00;;;;;;6240458;23;20366;-76
2023/09/18 07:53:42;;;;;;;8.10;1.45;;;22.30;64.60;;;;;;6240045;23;20378;-76
2023/09/18 07:56:07;;;;;;;4.95;0.80;;;22.40;1.00;;;;;;6240216;23;20465;-76
2023/09/18 07:58:33;;;;;;;7.27;1.17;;;22.30;7.80;;;;;;6239110;23;20408;-76
2023/09/18 08:00:59;;;;;;;6.45;1.17;;;22.30;99.90;;;;;;6240212;23;20366;-76
2023/09/18 08:03:26;;;;;;;5.60;1.10;;;22.40;1.00;;;;;;6239529;23;20373;-76
2023/09/18 08:05:53;;;;;;;6.50;0.80;;;22.50;99.90;;;;;;6239806;23;20448;-76
2023/09/18 08:08:20;;;;;;;5.30;0.70;;;22.60;1.00;;;;;;6240614;23;20441;-77
2023/09/18 08:10:46;;;;;;;8.45;1.27;;;22.50;99.90;;;;;;6240329;23;20370;-76
2023/09/18 08:13:12;;;;;;;5.70;1.30;;;22.70;99.90;;;;;;6239244;23;20435;-77
2023/09/18 08:15:37;;;;;;;5.30;1.00;;;23.00;99.90;;;;;;6239987;23;20376;-77
2023/09/18 08:18:03;;;;;;;6.40;1.10;;;23.20;99.90;;;;;;6206653;23;20364;-77
2023/09/18 08:20:29;;;;;;;7.73;1.00;;;23.30;99.90;;;;;;6229329;23;20366;-77
2023/09/18 08:22:54;;;;;;;7.73;1.07;;;23.20;1.00;;;;;;6240268;23;20392;-77
2023/09/18 08:25:20;;;;;;;6.33;1.07;;;23.00;57.50;;;;;;6239998;23;20370;-76
2023/09/18 08:27:47;;;;;;;5.50;0.87;;;23.00;1.00;;;;;;6209042;23;20368;-76
2023/09/18 08:30:13;;;;;;;4.30;0.70;;;22.90;1.00;;;;;;6238353;23;20366;-76
2023/09/18 08:32:39;;;;;;;5.90;1.00;;;22.80;99.90;;;;;;6239638;23;20362;-77
2023/09/18 08:35:06;;;;;;;10.80;1.10;;;22.80;1.00;;;;;;6239535;23;20362;-77
2023/09/18 08:37:32;;;;;;;5.15;0.98;;;22.90;99.90;;;;;;6240210;23;20358;-77
2023/09/18 08:40:00;;;;;;;5.18;1.10;;;22.80;1.00;;;;;;6239720;23;20397;-77
2023/09/18 08:42:30;;;;;;;4.70;0.90;;;22.60;99.90;;;;;;6240035;23;20376;-76
2023/09/18 08:44:58;;;;;;;5.78;0.80;;;22.50;93.70;;;;;;6239857;23;20370;-76
2023/09/18 08:47:24;;;;;;;4.60;0.60;;;22.00;99.90;;;;;;6239458;23;20389;-76
2023/09/18 08:49:52;;;;;;;5.00;1.00;;;22.10;99.90;;;;;;6207801;23;20467;-76
2023/09/18 08:52:18;;;;;;;7.70;0.70;;;22.20;1.00;;;;;;6202542;23;20677;-76
2023/09/18 08:54:45;;;;;;;6.25;0.77;;;22.40;99.90;;;;;;6214460;23;20416;-76
2023/09/18 08:57:12;;;;;;;5.00;0.70;;;22.10;99.90;;;;;;6240010;23;20366;-76
2023/09/18 08:59:39;;;;;;;4.55;0.57;;;22.00;1.00;;;;;;6240720;23;20920;-77
2023/09/18 09:02:05;;;;;;;4.60;0.85;;;21.90;47.00;;;;;;6239453;23;20822;-76
2023/09/18 09:04:31;;;;;;;6.22;0.80;;;21.70;99.90;;;;;;6239796;23;20377;-77
2023/09/18 09:06:59;;;;;;;8.70;1.30;;;21.60;99.90;;;;;;6240190;23;20826;-76
2023/09/18 09:09:26;;;;;;;6.47;0.90;;;21.30;99.90;;;;;;6239809;23;20366;-76
2023/09/18 09:11:52;;;;;;;4.90;1.00;;;21.30;1.00;;;;;;6239769;23;20408;-76
2023/09/18 09:14:19;;;;;;;4.50;0.70;;;21.10;1.00;;;;;;6240464;23;20797;-76
2023/09/18 09:16:49;;;;;;;4.30;0.60;;;21.10;1.00;;;;;;6239881;23;20365;-77
2023/09/18 09:19:17;;;;;;;4.30;0.70;;;21.10;1.00;;;;;;6240501;23;20366;-76
2023/09/18 09:21:44;;;;;;;4.25;0.70;;;21.20;1.00;;;;;;6239783;23;20416;-76
2023/09/18 09:24:13;;;;;;;4.90;0.80;;;21.30;1.00;;;;;;6240041;23;20365;-76
2023/09/18 09:26:42;;;;;;;5.80;1.00;;;21.20;1.00;;;;;;6239966;23;20370;-76
2023/09/18 09:29:18;;;;;;;6.00;1.00;;;21.30;1.00;;;;;;6239850;23;20361;-76
2023/09/18 09:31:47;;;;;;;4.80;0.80;;;21.20;1.00;;;;;;6240207;23;20362;-76
2023/09/18 09:34:26;;;;;;;4.20;0.60;;;21.20;1.00;;;;;;6239934;23;20385;-76
2023/09/18 09:36:53;;;;;;;6.07;0.90;;;21.00;99.90;;;;;;6239853;23;20830;-76
2023/09/18 09:39:19;;;;;;;7.70;0.80;;;20.80;1.00;;;;;;6239650;23;20357;-76
2023/09/18 09:41:49;;;;;;;4.40;0.80;;;20.70;1.00;;;;;;6240094;23;20364;-76
2023/09/18 09:44:14;;;;;;;4.20;0.70;;;20.70;1.00;;;;;;6240536;23;20582;-76
2023/09/18 09:46:51;;;;;;;4.70;0.80;;;20.70;1.00;;;;;;6238973;23;20377;-76
2023/09/18 09:49:19;;;;;;;4.05;0.50;;;20.70;1.00;;;;;;6240092;23;20381;-76
2023/09/18 09:51:45;;;;;;;4.47;0.60;;;20.90;1.00;;;;;;6241151;23;20674;-76
2023/09/18 09:54:12;;;;;;;7.97;1.10;;;21.00;1.00;;;;;;6238871;23;20377;-76
2023/09/18 09:56:43;;;;;;;5.70;1.33;;;21.20;1.00;;;;;;6239198;23;20481;-76
2023/09/18 09:59:09;;;;;;;4.50;0.80;;;21.30;1.00;;;;;;6239319;23;20423;-75
2023/09/18 10:01:35;;;;;;;6.23;1.03;;;21.30;1.00;;;;;;6240291;23;20366;-76
2023/09/18 10:04:07;;;;;;;6.80;0.80;;;21.10;1.00;;;;;;6239281;23;20372;-76
2023/09/18 10:06:34;;;;;;;4.40;0.75;;;21.10;1.00;;;;;;6239425;23;20369;-76
2023/09/18 10:09:06;;;;;;;6.40;0.90;;;21.00;1.00;;;;;;6241046;23;20390;-76
2023/09/18 10:11:36;;;;;;;4.22;0.63;;;21.00;1.00;;;;;;6240591;23;20354;-76
2023/09/18 10:14:11;;;;;;;4.40;0.70;;;20.80;1.00;;;;;;6242026;23;20389;-76
2023/09/18 10:16:41;;;;;;;4.20;0.80;;;20.90;1.00;;;;;;6242496;23;20369;-76
2023/09/18 10:19:33;;;;;;;4.25;0.70;;;21.00;1.00;;;;;;6242480;23;20361;-76
2023/09/18 10:22:42;;;;;;;4.50;0.90;;;21.00;1.00;;;;;;6245148;23;20730;-76
2023/09/18 10:25:31;;;;;;;4.50;1.20;;;21.10;1.00;;;;;;6231576;23;20376;-76
2023/09/18 10:27:58;;;;;;;7.82;0.93;;;20.80;1.00;;;;;;6242672;23;20369;-76
2023/09/18 10:30:25;;;;;;;6.53;0.90;;;20.60;1.00;;;;;;6243036;23;20730;-76
2023/09/18 10:32:51;;;;;;;4.40;0.90;;;20.40;1.00;;;;;;6243589;23;20460;-76
2023/09/18 10:35:17;;;;;;;4.97;1.00;;;20.50;1.00;;;;;;6244403;23;20468;-76
2023/09/18 10:37:45;;;;;;;4.88;1.23;;;20.30;1.00;;;;;;6243870;23;20366;-76
2023/09/18 10:40:11;;;;;;;4.75;1.02;;;20.20;1.00;;;;;;6244710;23;20898;-76
2023/09/18 10:42:41;;;;;;;5.32;1.00;;;20.10;1.00;;;;;;6242874;23;20366;-76
2023/09/18 10:45:11;;;;;;;3.97;0.70;;;20.10;1.00;;;;;;6242915;23;20358;-76
2023/09/18 10:47:40;;;;;;;5.53;1.30;;;20.20;9.90;;;;;;6243712;23;20385;-76
2023/09/18 10:50:07;;;;;;;8.30;1.30;;;20.30;12.60;;;;;;6244190;23;20361;-76
2023/09/18 10:52:34;;;;;;;4.40;0.80;;;20.40;1.00;;;;;;6243377;23;20362;-76
2023/09/18 10:55:03;;;;;;;7.30;1.20;;;20.50;1.00;;;;;;6244581;23;20378;-76
2023/09/18 10:57:34;;;;;;;4.60;0.93;;;20.50;1.00;;;;;;6216794;23;20753;-76
2023/09/18 11:00:00;;;;;;;6.30;0.90;;;20.40;1.00;;;;;;6243758;23;20366;-76
2023/09/18 11:02:27;;;;;;;4.80;1.10;;;20.40;1.00;;;;;;6242750;23;20389;-76
2023/09/18 11:04:54;;;;;;;5.47;0.88;;;20.40;1.00;;;;;;6243680;23;20373;-75
2023/09/18 11:07:22;;;;;;;5.70;1.00;;;20.50;1.00;;;;;;6218387;23;20369;-75
2023/09/18 11:09:48;;;;;;;6.50;1.25;;;20.50;1.00;;;;;;6242911;23;20864;-75
2023/09/18 11:12:18;;;;;;;4.60;1.10;;;20.50;1.00;;;;;;6222173;23;20366;-75
2023/09/18 11:14:56;;;;;;;5.30;0.60;;;20.60;1.00;;;;;;6244267;23;20384;-76
2023/09/18 11:17:33;;;;;;;4.30;0.90;;;20.50;1.00;;;;;;6240004;23;20354;-76
2023/09/18 11:20:23;;;;;;;4.80;0.90;;;20.50;1.00;;;;;;6240258;23;20687;-76
2023/09/18 11:23:00;;;;;;;4.72;1.00;;;20.40;1.00;;;;;;6240571;23;20350;-76
2023/09/18 11:25:51;;;;;;;4.60;1.20;;;20.40;1.00;;;;;;6240859;23;20358;-76
2023/09/18 11:28:23;;;;;;;4.72;1.05;;;20.40;1.00;;;;;;6240932;23;20347;-76
2023/09/18 11:30:58;;;;;;;5.97;0.93;;;20.40;1.00;;;;;;6240036;23;20452;-76
2023/09/18 11:33:35;;;;;;;6.50;0.90;;;20.60;1.00;;;;;;6239844;23;20498;-76
2023/09/18 11:36:22;;;;;;;7.70;0.90;;;20.70;1.00;;;;;;6239947;23;20366;-76
2023/09/18 11:38:56;;;;;;;5.70;0.90;;;21.00;1.00;;;;;;6241389;23;20362;-76
2023/09/18 11:41:26;;;;;;;8.70;1.10;;;21.10;1.00;;;;;;6239977;23;20881;-76
2023/09/18 11:43:52;;;;;;;6.00;1.47;;;21.30;1.00;;;;;;6239851;23;20354;-76
2023/09/18 11:46:20;;;;;;;4.90;1.10;;;21.50;1.00;;;;;;6240498;23;20461;-76
2023/09/18 11:48:50;;;;;;;4.65;0.98;;;21.60;1.00;;;;;;6241042;23;20368;-76
2023/09/18 11:51:22;;;;;;;6.30;0.82;;;21.50;1.00;;;;;;6240843;23;20358;-76
2023/09/18 11:53:49;;;;;;;4.90;1.00;;;21.70;1.00;;;;;;6240547;23;20765;-76
2023/09/18 11:56:17;;;;;;;6.00;1.10;;;21.60;1.00;;;;;;6240536;23;20361;-76
2023/09/18 11:58:51;;;;;;;4.78;0.85;;;21.60;1.00;;;;;;6240377;23;20366;-76
2023/09/18 12:01:18;;;;;;;5.10;0.93;;;21.60;1.00;;;;;;6241213;23;20388;-76
2023/09/18 12:03:44;;;;;;;4.60;0.80;;;21.60;1.00;;;;;;6240804;23;20362;-76
2023/09/18 12:06:13;;;;;;;5.60;0.80;;;21.70;99.90;;;;;;6208577;23;20422;-75
2023/09/18 12:08:39;;;;;;;5.07;0.80;;;21.60;99.90;;;;;;6240241;23;20416;-75
2023/09/18 12:11:06;;;;;;;5.13;0.90;;;21.40;99.90;;;;;;6240048;23;20729;-76
2023/09/18 12:13:32;;;;;;;5.07;0.88;;;21.40;99.90;;;;;;6240527;23;20382;-75
2023/09/18 12:16:00;;;;;;;5.10;1.00;;;21.30;99.90;;;;;;6240721;23;20401;-75
2023/09/18 12:18:28;;;;;;;6.83;1.10;;;21.40;99.90;;;;;;6239958;23;20365;-75
2023/09/18 12:20:55;;;;;;;4.20;0.80;;;21.30;99.90;;;;;;6240369;23;20812;-76
2023/09/18 12:23:22;;;;;;;5.57;1.00;;;21.40;99.90;;;;;;6240659;23;20444;-76
2023/09/18 12:25:50;;;;;;;4.80;0.82;;;21.30;99.90;;;;;;6240849;23;20364;-76
2023/09/18 12:28:16;;;;;;;6.60;0.90;;;21.10;99.90;;;;;;6241324;23;20424;-76
2023/09/18 12:30:43;;;;;;;5.70;0.82;;;21.20;99.90;;;;;;6241219;23;20397;-77
2023/09/18 12:33:10;;;;;;;4.93;1.00;;;21.40;99.90;;;;;;6241430;23;20382;-78
2023/09/18 12:35:37;;;;;;;4.90;0.70;;;21.50;99.90;;;;;;6242504;23;20365;-77
2023/09/18 12:38:13;;;;;;;4.93;0.80;;;21.60;99.90;;;;;;6241628;23;20399;-78
2023/09/18 12:40:39;;;;;;;5.03;0.75;;;21.70;99.90;;;;;;6241878;23;20817;-78
2023/09/18 12:43:06;;;;;;;4.30;0.70;;;21.80;99.90;;;;;;6241653;23;20386;-78
2023/09/18 12:45:32;;;;;;;4.50;1.00;;;21.80;1.00;;;;;;6241655;23;20377;-78
2023/09/18 12:47:59;;;;;;;5.80;0.80;;;21.90;1.00;;;;;;6241258;23;20366;-77
2023/09/18 12:50:25;;;;;;;4.57;0.70;;;22.10;1.00;;;;;;6241818;23;20350;-78
2023/09/18 12:52:50;;;;;;;5.00;0.80;;;22.20;99.90;;;;;;6240810;23;20900;-78